Time;durP1;ratioP1;P1;durP2;ratioP2;P2;SDS_P1;SDS_P2;PMS_P1;PMS_P2;Temp;Humidity;BMP_temperature;BMP_pressure;BME280_temperature;BME280_humidity;BME280_pressure;Samples;Min_cycle;Max_cycle;Signal;HPM_P1;HPM_P2
2021/04/25 00:01:24;;;;;;;0.20;0.20;;;;;;;5.61;54.53;98203.56;5132162;28;20042;-66
2021/04/25 00:03:50;;;;;;;0.20;0.20;;;;;;;5.58;54.54;98201.28;5134043;27;20076;-66
2021/04/25 00:06:16;;;;;;;0.20;0.20;;;;;;;5.58;54.55;98212.19;5133429;27;20027;-66
2021/04/25 00:08:41;;;;;;;0.20;0.20;;;;;;;5.56;54.42;98202.53;5133912;27;20031;-66
2021/04/25 00:11:07;;;;;;;0.20;0.20;;;;;;;5.56;54.41;98206.09;5137168;27;20042;-67
2021/04/25 00:13:33;;;;;;;0.20;0.20;;;;;;;5.56;54.41;98203.38;5136489;27;20515;-65
2021/04/25 00:15:59;;;;;;;3.60;0.55;;;;;;;5.58;54.19;98211.31;5133502;27;20400;-65
2021/04/25 00:18:25;;;;;;;0.20;0.20;;;;;;;5.60;54.17;98207.34;5133609;27;20020;-65
2021/04/25 00:20:51;;;;;;;0.20;0.20;;;;;;;5.61;53.94;98210.91;5133640;27;20135;-67
2021/04/25 00:23:18;;;;;;;0.20;0.20;;;;;;;5.61;53.90;98217.19;5133626;28;20440;-65
2021/04/25 00:25:44;;;;;;;0.20;0.20;;;;;;;5.61;53.81;98219.09;5133569;27;20043;-65
2021/04/25 00:28:09;;;;;;;0.20;0.20;;;;;;;5.60;53.82;98217.41;5133607;27;20054;-65
2021/04/25 00:30:35;;;;;;;0.20;0.20;;;;;;;5.60;53.64;98210.06;5133514;27;20057;-64
2021/04/25 00:33:02;;;;;;;0.20;0.20;;;;;;;5.61;53.41;98203.56;5131878;28;20023;-65
2021/04/25 00:35:27;;;;;;;0.20;0.20;;;;;;;5.65;53.45;98203.13;5133503;27;20031;-65
2021/04/25 00:37:53;;;;;;;0.20;0.20;;;;;;;5.67;53.30;98196.41;5133118;27;20047;-66
2021/04/25 00:40:20;;;;;;;0.20;0.20;;;;;;;5.71;53.32;98191.34;5133383;27;20027;-66
2021/04/25 00:42:46;;;;;;;0.20;0.20;;;;;;;5.78;53.11;98181.25;5133287;27;20023;-66
2021/04/25 00:45:15;;;;;;;0.20;0.20;;;;;;;5.82;53.11;98177.03;5133198;27;20034;-66
2021/04/25 00:47:46;;;;;;;0.20;0.20;;;;;;;5.82;53.18;98174.31;5131718;28;20481;-65
2021/04/25 00:50:15;;;;;;;0.20;0.20;;;;;;;5.85;53.07;98179.31;5131813;28;20039;-66
2021/04/25 00:52:43;;;;;;;0.10;0.10;;;;;;;5.86;52.97;98181.00;5135016;27;20027;-67
2021/04/25 00:55:11;;;;;;;0.20;0.20;;;;;;;5.88;53.04;98183.50;5137250;27;20152;-68
2021/04/25 00:57:36;;;;;;;0.20;0.20;;;;;;;5.86;53.11;98183.72;5136988;27;20169;-67
2021/04/25 01:00:05;;;;;;;0.13;0.13;;;;;;;5.89;53.02;98169.66;5136663;27;20500;-67
2021/04/25 01:02:32;;;;;;;0.20;0.20;;;;;;;5.95;52.82;98171.50;5137288;27;20027;-67
2021/04/25 01:04:57;;;;;;;0.20;0.20;;;;;;;5.97;52.82;98174.84;5135608;27;20027;-68
2021/04/25 01:07:23;;;;;;;0.20;0.20;;;;;;;6.01;52.51;98178.00;5135357;27;20050;-68
2021/04/25 01:09:55;;;;;;;0.28;0.28;;;;;;;6.03;52.63;98175.03;5136887;27;20484;-68
2021/04/25 01:12:22;;;;;;;0.20;0.20;;;;;;;5.95;52.68;98174.22;5136875;27;20041;-68
2021/04/25 01:14:48;;;;;;;0.20;0.20;;;;;;;5.90;52.67;98165.91;5136784;27;20039;-68
2021/04/25 01:17:13;;;;;;;0.50;0.50;;;;;;;5.89;52.70;98168.81;5136752;27;20077;-66
2021/04/25 01:19:39;;;;;;;0.10;0.10;;;;;;;5.88;52.66;98167.16;5136912;27;20384;-68
2021/04/25 01:22:06;;;;;;;0.30;0.30;;;;;;;5.91;52.50;98172.16;5136682;27;20461;-70
2021/04/25 01:24:32;;;;;;;0.15;0.15;;;;;;;5.93;52.50;98162.72;5136456;27;20027;-69
2021/04/25 01:26:58;;;;;;;0.20;0.20;;;;;;;5.99;52.42;98162.91;5144591;27;20138;-69
2021/04/25 01:29:24;;;;;;;0.20;0.20;;;;;;;6.03;52.16;98159.53;5135043;27;20034;-69
2021/04/25 01:31:49;;;;;;;0.10;0.10;;;;;;;6.05;52.09;98171.06;5136325;27;20106;-68
2021/04/25 01:34:15;;;;;;;0.20;0.20;;;;;;;6.06;52.10;98166.44;5136723;27;20038;-69
2021/04/25 01:36:41;;;;;;;0.20;0.20;;;;;;;6.05;52.01;98159.28;5136128;27;20027;-66
2021/04/25 01:39:07;;;;;;;0.20;0.20;;;;;;;6.02;52.08;98163.31;5136613;27;20043;-67
2021/04/25 01:41:33;;;;;;;0.20;0.20;;;;;;;6.06;51.89;98161.81;5136173;27;20031;-67
2021/04/25 01:44:00;;;;;;;0.20;0.20;;;;;;;6.10;51.77;98154.03;5136504;27;20035;-67
2021/04/25 01:46:26;;;;;;;0.20;0.20;;;;;;;6.20;51.42;98165.28;5135906;27;20030;-64
2021/04/25 01:48:52;;;;;;;0.20;0.20;;;;;;;6.34;51.10;98165.97;5136125;27;20110;-65
2021/04/25 01:51:18;;;;;;;0.30;0.30;;;;;;;6.44;50.76;98149.13;5135822;27;20039;-67
2021/04/25 01:53:43;;;;;;;0.20;0.20;;;;;;;6.49;50.78;98146.53;5135675;27;20053;-67
2021/04/25 01:56:09;;;;;;;0.20;0.20;;;;;;;6.63;50.56;98148.06;5134410;27;20484;-67
2021/04/25 01:58:35;;;;;;;0.20;0.20;;;;;;;6.69;50.51;98140.06;5135508;27;20035;-69
2021/04/25 02:01:01;;;;;;;0.17;0.17;;;;;;;6.71;50.46;98138.75;5135819;27;20027;-68
2021/04/25 02:03:27;;;;;;;0.20;0.20;;;;;;;6.68;50.54;98133.75;5133686;27;20031;-66
2021/04/25 02:05:53;;;;;;;0.20;0.20;;;;;;;6.70;50.61;98137.09;5134199;27;20408;-66
2021/04/25 02:08:19;;;;;;;0.20;0.20;;;;;;;6.81;50.40;98128.16;5135502;27;20127;-65
2021/04/25 02:10:46;;;;;;;0.20;0.20;;;;;;;6.94;49.80;98132.63;5135420;27;20027;-69
2021/04/25 02:13:12;;;;;;;1.48;0.40;;;;;;;7.04;49.85;98125.78;5134373;27;20083;-66
2021/04/25 02:15:39;;;;;;;0.20;0.20;;;;;;;7.18;49.67;98132.75;5135289;27;20035;-68
2021/04/25 02:18:05;;;;;;;0.30;0.30;;;;;;;7.15;49.57;98134.03;5130685;27;20122;-66
2021/04/25 02:20:32;;;;;;;0.20;0.20;;;;;;;7.01;49.95;98133.38;5117025;27;20489;-66
2021/04/25 02:22:58;;;;;;;0.40;0.40;;;;;;;7.00;50.06;98136.34;5115186;28;20106;-66
2021/04/25 02:25:24;;;;;;;0.20;0.20;;;;;;;7.07;49.96;98136.28;5115078;28;20055;-66
2021/04/25 02:27:52;;;;;;;0.30;0.30;;;;;;;7.15;49.71;98133.22;5114477;28;20088;-66
2021/04/25 02:30:29;;;;;;;0.52;0.52;;;;;;;7.17;49.66;98126.47;5114754;28;20089;-67
2021/04/25 02:32:57;;;;;;;0.20;0.20;;;;;;;7.28;49.35;98127.56;5114526;28;20039;-67
2021/04/25 02:35:24;;;;;;;0.20;0.20;;;;;;;7.21;49.36;98126.81;5114611;28;20087;-68
2021/04/25 02:37:50;;;;;;;0.20;0.20;;;;;;;7.07;49.54;98126.19;5114272;28;20469;-67
2021/04/25 02:40:20;;;;;;;0.35;0.25;;;;;;;6.94;49.76;98126.34;5114273;28;20028;-65
2021/04/25 02:42:47;;;;;;;2.10;0.47;;;;;;;6.85;49.89;98125.81;5141818;27;20083;-67
2021/04/25 02:45:15;;;;;;;0.20;0.20;;;;;;;6.82;49.97;98115.34;5114578;28;20032;-67
2021/04/25 02:47:50;;;;;;;0.10;0.10;;;;;;;6.77;50.01;98116.03;5114246;28;20023;-68
2021/04/25 02:50:19;;;;;;;0.20;0.20;;;;;;;6.84;49.75;98115.94;5114399;28;20058;-68
2021/04/25 02:52:46;;;;;;;0.20;0.20;;;;;;;6.86;49.64;98108.38;5114257;28;20040;-68
2021/04/25 02:55:12;;;;;;;0.20;0.20;;;;;;;6.86;49.52;98096.63;5112733;28;20538;-67
2021/04/25 02:57:39;;;;;;;0.20;0.20;;;;;;;6.87;49.51;98098.28;5114164;28;20035;-67
2021/04/25 03:00:10;;;;;;;0.20;0.20;;;;;;;6.94;49.30;98093.59;5114235;28;20077;-68
2021/04/25 03:02:36;;;;;;;0.20;0.20;;;;;;;7.05;49.16;98097.44;5112470;28;20397;-68
2021/04/25 03:05:04;;;;;;;0.20;0.20;;;;;;;7.08;49.04;98084.19;5114357;28;20027;-67
2021/04/25 03:07:29;;;;;;;0.20;0.20;;;;;;;7.18;48.94;98076.28;5114020;28;20032;-69
2021/04/25 03:09:55;;;;;;;0.20;0.20;;;;;;;7.23;48.77;98080.19;5113799;28;20382;-68
2021/04/25 03:12:21;;;;;;;0.20;0.20;;;;;;;7.18;48.74;98089.06;5114105;28;20042;-66
2021/04/25 03:14:46;;;;;;;0.57;0.57;;;;;;;7.22;48.85;98090.28;5112044;28;20028;-65
2021/04/25 03:17:12;;;;;;;0.10;0.10;;;;;;;7.31;48.70;98088.88;5113372;28;20581;-71
2021/04/25 03:19:38;;;;;;;0.20;0.20;;;;;;;7.40;48.59;98081.19;5112078;28;20034;-69
2021/04/25 03:22:04;;;;;;;0.20;0.20;;;;;;;7.56;48.32;98079.72;5112177;28;20135;-69
2021/04/25 03:24:30;;;;;;;0.50;0.47;;;;;;;7.69;48.11;98070.47;5112098;28;20039;-69
2021/04/25 03:26:56;;;;;;;0.20;0.20;;;;;;;7.95;47.76;98066.50;5113391;28;20031;-69
2021/04/25 03:29:22;;;;;;;0.28;0.28;;;;;;;8.14;47.41;98069.09;5112027;28;20023;-67
2021/04/25 03:31:47;;;;;;;0.20;0.20;;;;;;;8.29;47.09;98066.72;5111918;28;20027;-68
2021/04/25 03:34:13;;;;;;;0.20;0.20;;;;;;;8.31;47.13;98064.59;5113244;28;20085;-66
2021/04/25 03:36:39;;;;;;;0.20;0.20;;;;;;;8.22;47.35;98060.56;5112998;28;20447;-66
2021/04/25 03:39:06;;;;;;;0.20;0.20;;;;;;;8.13;47.58;98061.97;5113763;28;20040;-66
2021/04/25 03:41:32;;;;;;;1.15;0.45;;;;;;;8.13;47.78;98057.34;5113070;28;20533;-67
2021/04/25 03:43:58;;;;;;;0.20;0.20;;;;;;;8.32;47.32;98058.06;5112885;28;20036;-61
2021/04/25 03:46:28;;;;;;;0.20;0.20;;;;;;;8.52;47.06;98048.66;5109888;28;20475;-64
2021/04/25 03:48:54;;;;;;;0.10;0.10;;;;;;;8.80;46.56;98058.00;5111658;28;20032;-63
2021/04/25 03:51:19;;;;;;;0.15;0.15;;;;;;;9.01;46.30;98054.63;5111649;28;20080;-63
2021/04/25 03:53:45;;;;;;;0.20;0.20;;;;;;;9.13;46.19;98051.84;5112215;28;20035;-63
2021/04/25 03:56:11;;;;;;;0.20;0.20;;;;;;;9.37;45.87;98052.56;5113043;28;20024;-63
2021/04/25 03:58:37;;;;;;;0.45;0.45;;;;;;;9.49;45.64;98049.75;5112955;28;20031;-66
2021/04/25 04:01:03;;;;;;;0.10;0.10;;;;;;;9.39;46.15;98044.94;5111822;28;20502;-64
2021/04/25 04:03:29;;;;;;;0.20;0.20;;;;;;;9.38;46.14;98048.75;5111614;28;20078;-63
2021/04/25 04:05:54;;;;;;;0.20;0.20;;;;;;;9.37;46.30;98044.34;5095028;28;20034;-62
2021/04/25 04:08:20;;;;;;;0.10;0.10;;;;;;;9.26;46.40;98043.31;5113186;28;20181;-61
2021/04/25 04:10:46;;;;;;;0.10;0.10;;;;;;;9.09;46.67;98042.44;5113131;28;20049;-64
2021/04/25 04:13:12;;;;;;;0.10;0.10;;;;;;;8.96;47.21;98043.53;5111725;28;20059;-66
2021/04/25 04:15:38;;;;;;;0.20;0.20;;;;;;;8.90;47.01;98028.91;5103826;28;20119;-61
2021/04/25 04:18:04;;;;;;;0.10;0.10;;;;;;;8.84;47.09;98029.06;5118050;27;20035;-69
2021/04/25 04:20:30;;;;;;;0.20;0.20;;;;;;;8.84;46.99;98023.59;5114755;28;20252;-69
2021/04/25 04:22:56;;;;;;;0.20;0.20;;;;;;;8.86;47.06;98018.69;5112793;27;20476;-66
2021/04/25 04:25:22;;;;;;;2.53;2.17;;;;;;;9.05;46.71;98022.91;5108453;28;20029;-69
2021/04/25 04:27:48;;;;;;;0.10;0.10;;;;;;;9.14;46.46;98012.38;5113834;27;20053;-67
2021/04/25 04:30:14;;;;;;;3.03;1.17;;;;;;;9.10;46.63;98009.31;5118454;27;20084;-68
2021/04/25 04:32:51;;;;;;;0.20;0.20;;;;;;;8.96;46.58;98002.47;5114347;27;20035;-73
2021/04/25 04:35:17;;;;;;;0.10;0.10;;;;;;;8.89;46.67;98002.63;5122081;27;20050;-69
2021/04/25 04:37:43;;;;;;;0.20;0.20;;;;;;;8.84;46.69;97993.50;5110686;27;20053;-69
2021/04/25 04:40:09;;;;;;;0.20;0.20;;;;;;;8.90;46.82;97995.25;5112278;27;20023;-68
2021/04/25 04:42:38;;;;;;;0.10;0.10;;;;;;;9.07;46.48;97992.56;5108440;27;20019;-61
2021/04/25 04:45:06;;;;;;;0.35;0.35;;;;;;;9.25;46.02;97999.75;5110862;27;20024;-69
2021/04/25 04:47:32;;;;;;;0.10;0.10;;;;;;;9.41;45.91;98007.16;5104957;28;20388;-65
2021/04/25 04:49:58;;;;;;;0.20;0.20;;;;;;;9.56;45.68;97992.06;5104655;27;20028;-70
2021/04/25 04:52:23;;;;;;;0.20;0.20;;;;;;;9.67;45.52;97988.38;5112141;27;20492;-68
2021/04/25 04:54:50;;;;;;;0.20;0.20;;;;;;;9.80;45.17;97988.06;5104558;28;20055;-68
2021/04/25 04:57:16;;;;;;;1.20;0.47;;;;;;;10.34;44.36;97986.69;5105747;28;20103;-72
2021/04/25 04:59:44;;;;;;;0.20;0.20;;;;;;;10.92;43.67;97989.03;5102205;28;20573;-71
2021/04/25 05:02:10;;;;;;;0.38;0.38;;;;;;;11.04;43.48;97982.31;5106237;28;20034;-69
2021/04/25 05:04:38;;;;;;;0.17;0.17;;;;;;;11.04;43.46;97965.84;5103305;28;20028;-71
2021/04/25 05:07:04;;;;;;;0.10;0.10;;;;;;;11.41;43.14;97956.03;5103799;28;20072;-70
2021/04/25 05:09:30;;;;;;;0.10;0.10;;;;;;;11.70;42.63;97958.44;5104077;28;20031;-69
2021/04/25 05:11:56;;;;;;;0.15;0.15;;;;;;;11.75;42.61;97959.31;5113927;27;20410;-68
2021/04/25 05:14:23;;;;;;;0.10;0.10;;;;;;;11.72;42.78;97965.34;5110334;27;20072;-70
2021/04/25 05:16:49;;;;;;;0.13;0.13;;;;;;;11.81;42.85;97946.44;5102699;28;20085;-66
2021/04/25 05:19:15;;;;;;;0.20;0.20;;;;;;;11.95;42.68;97957.00;5101773;28;20081;-63
2021/04/25 05:21:42;;;;;;;0.17;0.17;;;;;;;12.06;42.65;97962.31;5104233;28;20118;-67
2021/04/25 05:24:10;;;;;;;0.20;0.20;;;;;;;12.23;42.39;97940.13;5104102;28;20102;-65
2021/04/25 05:26:37;;;;;;;0.20;0.20;;;;;;;12.50;42.15;97952.91;5102885;28;20031;-67
2021/04/25 05:29:04;;;;;;;0.10;0.10;;;;;;;12.69;42.00;97946.91;5113869;27;20030;-63
2021/04/25 05:31:30;;;;;;;0.10;0.10;;;;;;;12.67;41.88;97949.94;5105019;27;20039;-64
2021/04/25 05:33:56;;;;;;;0.10;0.10;;;;;;;12.49;42.10;97943.00;5109993;27;20390;-65
2021/04/25 05:36:21;;;;;;;0.20;0.20;;;;;;;12.50;42.25;97935.56;5102780;28;20031;-64
2021/04/25 05:38:47;;;;;;;0.10;0.10;;;;;;;12.70;41.91;97943.06;5103457;28;20456;-64
2021/04/25 05:41:13;;;;;;;0.10;0.10;;;;;;;12.65;42.08;97930.13;5110728;27;20035;-66
2021/04/25 05:43:40;;;;;;;0.25;0.25;;;;;;;12.58;42.47;97933.09;5108608;27;20063;-66
2021/04/25 05:46:06;;;;;;;0.20;0.20;;;;;;;12.51;42.29;97929.78;5110778;27;20125;-68
2021/04/25 05:48:32;;;;;;;0.10;0.10;;;;;;;12.43;42.47;97933.88;5113242;27;20445;-70
2021/04/25 05:50:58;;;;;;;0.17;0.17;;;;;;;12.36;42.49;97904.94;5107181;28;20036;-68
2021/04/25 05:53:24;;;;;;;0.35;0.35;;;;;;;12.33;42.46;97924.75;5105413;27;20059;-67
2021/04/25 05:55:49;;;;;;;0.20;0.20;;;;;;;12.46;42.48;97917.94;5111108;27;20059;-65
2021/04/25 05:58:15;;;;;;;0.63;0.25;;;;;;;12.52;42.24;97912.16;5104126;27;20546;-66
2021/04/25 06:00:41;;;;;;;0.10;0.10;;;;;;;12.49;42.20;97911.88;5106855;28;20031;-68
2021/04/25 06:03:07;;;;;;;0.35;0.20;;;;;;;12.61;41.91;97901.44;5110538;27;20024;-66
2021/04/25 06:05:33;;;;;;;0.10;0.10;;;;;;;12.90;41.42;97893.53;5105395;28;20024;-66
2021/04/25 06:08:01;;;;;;;0.10;0.10;;;;;;;13.12;40.96;97875.94;5108692;27;20470;-67
2021/04/25 06:10:27;;;;;;;0.13;0.13;;;;;;;13.10;40.90;97891.91;5105323;28;20110;-62
2021/04/25 06:12:53;;;;;;;0.10;0.10;;;;;;;13.09;40.73;97884.75;5101880;28;20461;-65
2021/04/25 06:15:21;;;;;;;0.20;0.20;;;;;;;13.16;40.95;97874.28;5107891;27;20027;-67
2021/04/25 06:17:47;;;;;;;0.30;0.30;;;;;;;13.28;40.55;97885.03;5107531;28;20031;-67
2021/04/25 06:20:16;;;;;;;0.10;0.10;;;;;;;13.28;40.73;97876.75;5103150;28;20039;-68
2021/04/25 06:22:43;;;;;;;0.10;0.10;;;;;;;13.38;40.29;97876.78;5105772;27;20024;-67
2021/04/25 06:25:14;;;;;;;0.10;0.10;;;;;;;13.38;40.52;97868.50;5112700;27;20036;-66
2021/04/25 06:27:41;;;;;;;0.10;0.10;;;;;;;13.44;40.29;97867.44;5115247;27;20115;-69
2021/04/25 06:30:09;;;;;;;0.10;0.10;;;;;;;13.58;40.26;97862.16;5110557;27;20023;-66
2021/04/25 06:32:36;;;;;;;0.10;0.10;;;;;;;13.63;40.33;97878.72;5109385;27;20038;-67
2021/04/25 06:35:03;;;;;;;0.13;0.13;;;;;;;13.58;40.48;97864.91;5112953;27;20023;-66
2021/04/25 06:37:29;;;;;;;0.63;0.63;;;;;;;13.48;40.64;97871.25;5103288;28;20055;-68
2021/04/25 06:39:56;;;;;;;0.30;0.30;;;;;;;13.53;40.54;97862.19;5102997;28;20058;-63
2021/04/25 06:42:22;;;;;;;0.20;0.20;;;;;;;13.75;40.22;97872.91;5101000;27;20027;-67
2021/04/25 06:44:48;;;;;;;0.10;0.10;;;;;;;13.81;40.19;97873.72;5105924;27;20085;-66
2021/04/25 06:47:15;;;;;;;0.28;0.28;;;;;;;13.71;40.04;97866.28;5108992;27;20485;-65
2021/04/25 06:49:42;;;;;;;0.20;0.20;;;;;;;13.64;40.15;97872.09;5103897;28;20424;-68
2021/04/25 06:52:12;;;;;;;0.10;0.10;;;;;;;13.68;40.31;97875.13;5102934;28;20066;-66
2021/04/25 06:54:39;;;;;;;0.20;0.20;;;;;;;13.52;40.34;97860.53;5103032;28;20019;-66
2021/04/25 06:57:05;;;;;;;0.10;0.10;;;;;;;13.36;40.76;97862.47;5100433;28;20034;-66
2021/04/25 06:59:31;;;;;;;0.13;0.13;;;;;;;13.30;40.63;97874.56;5102495;28;20061;-66
2021/04/25 07:01:57;;;;;;;0.30;0.30;;;;;;;13.34;40.49;97856.41;5101800;28;20466;-64
2021/04/25 07:04:23;;;;;;;0.47;0.20;;;;;;;13.44;40.29;97869.34;5100880;27;20050;-66
2021/04/25 07:06:49;;;;;;;0.10;0.10;;;;;;;13.39;40.68;97867.41;5108063;27;20020;-66
2021/04/25 07:09:15;;;;;;;0.10;0.10;;;;;;;13.35;40.45;97868.25;5102000;28;20096;-66
2021/04/25 07:11:41;;;;;;;0.20;0.20;;;;;;;13.29;40.64;97865.47;5105117;28;20418;-64
2021/04/25 07:14:07;;;;;;;0.10;0.10;;;;;;;13.18;40.55;97857.50;5102747;27;20032;-67
2021/04/25 07:16:33;;;;;;;0.10;0.10;;;;;;;13.17;40.84;97859.41;5100026;27;20031;-65
2021/04/25 07:18:58;;;;;;;0.10;0.10;;;;;;;13.27;40.28;97864.91;5082113;27;20031;-65
2021/04/25 07:21:24;;;;;;;0.10;0.10;;;;;;;13.31;40.45;97855.00;5104118;27;20521;-66
2021/04/25 07:23:50;;;;;;;0.35;0.20;;;;;;;13.29;40.15;97851.69;5098325;28;20035;-67
2021/04/25 07:26:16;;;;;;;0.10;0.10;;;;;;;13.32;40.10;97856.66;5100440;28;20448;-65
2021/04/25 07:28:42;;;;;;;0.10;0.10;;;;;;;13.41;40.03;97843.16;5102342;27;20032;-67
2021/04/25 07:31:10;;;;;;;0.17;0.17;;;;;;;13.46;39.79;97845.91;5107271;27;20023;-66
2021/04/25 07:33:36;;;;;;;0.10;0.10;;;;;;;13.59;39.61;97840.91;5109347;27;20030;-66
2021/04/25 07:36:08;;;;;;;0.10;0.10;;;;;;;13.57;39.65;97835.69;5101708;28;20085;-66
2021/04/25 07:38:34;;;;;;;0.10;0.10;;;;;;;13.56;39.68;97856.13;5108978;27;20057;-66
2021/04/25 07:41:00;;;;;;;0.10;0.10;;;;;;;13.58;39.69;97844.81;5114053;27;20023;-65
2021/04/25 07:43:26;;;;;;;0.10;0.10;;;;;;;13.60;39.52;97848.09;5117363;27;20038;-64
2021/04/25 07:45:51;;;;;;;0.10;0.10;;;;;;;13.63;39.90;97847.53;5119568;27;20019;-64
2021/04/25 07:48:17;;;;;;;0.10;0.10;;;;;;;13.38;39.96;97840.13;5115196;27;20446;-66
2021/04/25 07:50:44;;;;;;;0.10;0.10;;;;;;;13.32;40.30;97856.66;5122003;27;20024;-65
2021/04/25 07:53:10;;;;;;;0.30;0.30;;;;;;;13.08;40.46;97834.31;5118961;27;20029;-64
2021/04/25 07:55:36;;;;;;;0.20;0.20;;;;;;;13.08;40.51;97830.75;5126593;27;20023;-65
2021/04/25 07:58:02;;;;;;;0.50;0.50;;;;;;;13.07;40.30;97831.84;5131814;27;20362;-65
2021/04/25 08:00:28;;;;;;;0.20;0.20;;;;;;;13.10;40.50;97836.78;5111750;28;20054;-65
2021/04/25 08:02:53;;;;;;;0.10;0.10;;;;;;;13.05;40.15;97823.03;5115465;27;20659;-68
2021/04/25 08:05:19;;;;;;;0.20;0.20;;;;;;;13.14;40.29;97822.19;5125216;27;20031;-64
2021/04/25 08:07:47;;;;;;;0.20;0.20;;;;;;;13.30;39.71;97825.75;5108697;28;20039;-68
2021/04/25 08:10:13;;;;;;;0.10;0.10;;;;;;;13.47;39.45;97816.38;5132438;27;20496;-64
2021/04/25 08:12:39;;;;;;;0.10;0.10;;;;;;;13.51;39.56;97817.50;5123219;27;20061;-66
2021/04/25 08:15:06;;;;;;;0.20;0.20;;;;;;;13.57;39.43;97824.66;5112757;28;20023;-67
2021/04/25 08:17:32;;;;;;;0.10;0.10;;;;;;;13.59;39.61;97816.94;5112817;28;20042;-66
2021/04/25 08:19:58;;;;;;;0.10;0.10;;;;;;;13.65;39.38;97818.56;5114171;28;20038;-66
2021/04/25 08:22:24;;;;;;;0.10;0.10;;;;;;;13.71;39.45;97813.06;5119884;28;20121;-67
2021/04/25 08:24:52;;;;;;;0.10;0.10;;;;;;;13.71;39.45;97805.59;5134903;27;20038;-67
2021/04/25 08:27:18;;;;;;;0.10;0.10;;;;;;;13.89;38.83;97815.19;5136150;28;20053;-65
2021/04/25 08:29:44;;;;;;;0.10;0.10;;;;;;;14.17;38.94;97815.66;5133793;27;20035;-67
2021/04/25 08:32:10;;;;;;;0.13;0.13;;;;;;;14.26;38.80;97813.94;5133873;28;20031;-65
2021/04/25 08:34:36;;;;;;;0.10;0.10;;;;;;;14.28;38.70;97808.97;5131854;28;20033;-66
2021/04/25 08:37:07;;;;;;;0.10;0.10;;;;;;;14.13;38.88;97792.47;5111959;27;20619;-67
2021/04/25 08:39:33;;;;;;;0.10;0.10;;;;;;;14.00;39.27;97791.97;5092442;28;20032;-66
2021/04/25 08:41:59;;;;;;;0.10;0.10;;;;;;;13.99;39.34;97804.13;5092510;28;20490;-66
2021/04/25 08:44:25;;;;;;;0.10;0.10;;;;;;;14.10;39.08;97799.38;5092253;28;20031;-67
2021/04/25 08:46:52;;;;;;;0.10;0.10;;;;;;;14.10;39.16;97782.81;5092512;28;20040;-67
2021/04/25 08:49:23;;;;;;;0.10;0.10;;;;;;;14.05;38.96;97779.28;5092627;28;20039;-65
2021/04/25 08:51:53;;;;;;;0.70;0.70;;;;;;;13.94;39.31;97793.13;5110198;28;20119;-66
2021/04/25 08:54:24;;;;;;;0.10;0.10;;;;;;;13.92;39.43;97791.75;5113558;28;20034;-65
2021/04/25 08:56:50;;;;;;;0.10;0.10;;;;;;;13.96;39.15;97777.09;5105613;28;20035;-66
2021/04/25 08:59:20;;;;;;;0.15;0.15;;;;;;;14.13;38.92;97790.56;5116504;28;20066;-67
2021/04/25 09:01:46;;;;;;;2.90;0.30;;;;;;;14.17;38.54;97771.47;5111660;28;20036;-65
2021/04/25 09:04:18;;;;;;;0.10;0.10;;;;;;;14.22;38.59;97760.38;5112487;28;20035;-68
2021/04/25 09:06:58;;;;;;;0.20;0.20;;;;;;;14.36;38.68;97768.88;5112501;28;20074;-68
2021/04/25 09:09:41;;;;;;;0.20;0.20;;;;;;;14.47;38.33;97756.69;5110837;28;20024;-66
2021/04/25 09:12:07;;;;;;;0.10;0.10;;;;;;;14.42;38.48;97769.69;5112854;28;20054;-68
2021/04/25 09:14:36;;;;;;;0.20;0.20;;;;;;;14.36;38.42;97747.63;5117870;27;20027;-64
2021/04/25 09:17:04;;;;;;;0.10;0.10;;;;;;;14.25;38.70;97759.84;5116255;27;20477;-66
2021/04/25 09:19:55;;;;;;;0.20;0.20;;;;;;;14.15;39.13;97741.41;5120366;27;20420;-65
2021/04/25 09:22:24;;;;;;;0.10;0.10;;;;;;;14.09;38.84;97738.94;5129418;27;20042;-67
2021/04/25 09:25:06;;;;;;;0.20;0.20;;;;;;;14.09;38.87;97734.25;5114596;28;20751;-66
2021/04/25 09:27:32;;;;;;;0.20;0.20;;;;;;;14.16;38.82;97740.28;5120047;27;20038;-68
2021/04/25 09:29:58;;;;;;;0.10;0.10;;;;;;;14.28;38.49;97734.44;5115633;28;20024;-67
2021/04/25 09:32:33;;;;;;;0.17;0.17;;;;;;;14.25;38.94;97735.00;5115552;28;20031;-68
2021/04/25 09:35:17;;;;;;;0.10;0.10;;;;;;;14.07;39.05;97724.59;5116039;28;20386;-65
2021/04/25 09:37:50;;;;;;;0.17;0.17;;;;;;;13.84;39.42;97726.94;5114339;28;20059;-66
2021/04/25 09:40:22;;;;;;;0.17;0.17;;;;;;;13.73;39.60;97712.34;5114467;27;20038;-66
2021/04/25 09:43:00;;;;;;;0.10;0.10;;;;;;;13.70;39.59;97723.13;5121689;27;20035;-65
2021/04/25 09:45:27;;;;;;;0.10;0.10;;;;;;;13.59;39.58;97722.31;5122964;27;20501;-66
2021/04/25 09:47:54;;;;;;;0.20;0.20;;;;;;;13.60;39.77;97702.75;5133101;27;20023;-68
2021/04/25 09:50:23;;;;;;;0.30;0.30;;;;;;;13.51;39.83;97726.50;5128656;27;20040;-67
2021/04/25 09:52:52;;;;;;;0.10;0.10;;;;;;;13.36;39.89;97729.31;5115324;28;20081;-63
2021/04/25 09:55:24;;;;;;;0.10;0.10;;;;;;;13.39;39.72;97723.22;5115150;27;20089;-67
2021/04/25 09:57:54;;;;;;;0.10;0.10;;;;;;;13.44;39.48;97703.91;5114553;27;20759;-67
2021/04/25 10:00:21;;;;;;;0.40;0.40;;;;;;;13.54;39.38;97705.81;5125450;27;20043;-62
2021/04/25 10:03:10;;;;;;;0.10;0.10;;;;;;;13.58;39.53;97706.91;5134910;27;20080;-67
2021/04/25 10:05:38;;;;;;;0.10;0.10;;;;;;;13.61;39.44;97701.63;5127800;27;20034;-66
2021/04/25 10:08:04;;;;;;;0.10;0.10;;;;;;;13.68;39.25;97704.09;5114351;28;20462;-68
2021/04/25 10:10:32;;;;;;;0.10;0.10;;;;;;;13.91;38.97;97712.81;5119382;27;20065;-67
2021/04/25 10:12:59;;;;;;;0.10;0.10;;;;;;;14.00;39.02;97711.94;5130619;27;20031;-68
2021/04/25 10:15:25;;;;;;;0.30;0.30;;;;;;;14.08;38.68;97710.50;5135975;27;20028;-68
2021/04/25 10:17:55;;;;;;;0.20;0.20;;;;;;;14.01;38.76;97712.75;5128318;27;20035;-70
2021/04/25 10:20:23;;;;;;;0.50;0.50;;;;;;;13.99;39.04;97707.53;5116183;27;20044;-68
2021/04/25 10:22:50;;;;;;;0.10;0.10;;;;;;;14.00;38.88;97703.66;5123549;27;20024;-67
2021/04/25 10:25:19;;;;;;;0.45;0.45;;;;;;;14.05;39.20;97700.06;5110226;27;20028;-68
2021/04/25 10:28:05;;;;;;;0.13;0.13;;;;;;;14.40;38.68;97691.81;5100687;28;20432;-71
2021/04/25 10:30:38;;;;;;;0.10;0.10;;;;;;;14.74;37.86;97664.22;5109651;27;20032;-68
2021/04/25 10:33:05;;;;;;;0.10;0.10;;;;;;;14.85;38.00;97671.28;5114301;27;20448;-68
2021/04/25 10:35:37;;;;;;;0.10;0.10;;;;;;;14.86;38.05;97672.13;5114476;27;20503;-68
2021/04/25 10:38:05;;;;;;;0.10;0.10;;;;;;;14.89;37.91;97663.25;5101157;27;20047;-67
2021/04/25 10:40:47;;;;;;;0.10;0.10;;;;;;;14.89;38.28;97654.97;5111268;27;20032;-65
2021/04/25 10:43:14;;;;;;;0.20;0.20;;;;;;;14.85;38.10;97649.19;5107287;27;20041;-67
2021/04/25 10:46:12;;;;;;;0.20;0.20;;;;;;;14.77;38.74;97654.53;5105874;28;20024;-71
2021/04/25 10:48:38;;;;;;;0.93;0.35;;;;;;;14.75;38.46;97648.47;5000418;28;20801;-67
2021/04/25 10:51:06;;;;;;;0.10;0.10;;;;;;;14.75;38.67;97643.75;5019215;28;20089;-73
2021/04/25 10:53:36;;;;;;;0.10;0.10;;;;;;;14.75;38.48;97642.94;5007126;28;20028;-67
2021/04/25 10:56:14;;;;;;;0.10;0.10;;;;;;;14.72;38.90;97649.88;5020537;28;20034;-68
2021/04/25 10:58:45;;;;;;;0.28;0.28;;;;;;;14.70;38.60;97641.06;5017904;28;20466;-68
2021/04/25 11:01:39;;;;;;;0.10;0.10;;;;;;;14.89;38.84;97658.53;5023787;28;20049;-68
2021/04/25 11:04:06;;;;;;;0.20;0.20;;;;;;;14.98;38.23;97647.69;4973869;28;20114;-68
2021/04/25 11:06:32;;;;;;;0.10;0.10;;;;;;;14.95;38.59;97653.78;4969707;28;20117;-68
2021/04/25 11:08:58;;;;;;;0.10;0.10;;;;;;;14.85;38.75;97640.06;4969482;28;20041;-65
2021/04/25 11:11:38;;;;;;;0.25;0.25;;;;;;;14.78;39.01;97620.25;4969604;28;20035;-68
2021/04/25 11:14:06;;;;;;;0.17;0.17;;;;;;;14.67;39.00;97630.59;4970032;28;20488;-63
2021/04/25 11:16:33;;;;;;;0.15;0.15;;;;;;;14.61;39.20;97629.81;4968863;28;20042;-67
2021/04/25 11:19:14;;;;;;;0.10;0.10;;;;;;;14.59;39.18;97622.88;4967905;28;20396;-71
2021/04/25 11:21:41;;;;;;;0.13;0.13;;;;;;;14.47;39.13;97626.03;4954834;28;20042;-67
2021/04/25 11:24:07;;;;;;;0.10;0.10;;;;;;;14.35;39.52;97630.00;5006938;28;20044;-69
2021/04/25 11:26:40;;;;;;;2.20;0.40;;;;;;;14.30;39.53;97619.00;5047643;28;20035;-69
2021/04/25 11:29:11;;;;;;;0.10;0.10;;;;;;;14.26;39.45;97611.56;5060765;28;20117;-68
2021/04/25 11:31:53;;;;;;;0.10;0.10;;;;;;;14.18;39.77;97610.25;5048432;28;20415;-68
2021/04/25 11:34:33;;;;;;;0.10;0.10;;;;;;;14.02;39.96;97610.34;5045982;28;20108;-70
2021/04/25 11:37:21;;;;;;;0.20;0.20;;;;;;;13.92;40.12;97604.91;5056887;28;20106;-68
2021/04/25 11:39:53;;;;;;;0.10;0.10;;;;;;;13.80;40.06;97602.50;5054169;28;20414;-69